Pacific Solarelle — V7UB8 — position and weather

sailwx.info

Track history (hours):
 
Tides and Currents Weather Stations Pressure Air Temp Water Temp Dewpoint Dewpoint Depression Visibility Wind Speed Wind Dir Waves Ship Positions

Pacific Solarelle

Last reported at 2016-Aug-25 21:26 UTC. Time now 2016-Sep-26 10:30 UTC.
Position N 29°51' E 032°32'.
Warning: this ship's position is 31 days out of date.

Length 180 m; draft 10.3 m.

Type: Ship. MMSI: 538003925.

Date/timePositionNaut miles runAvg speedWind from/ knotsBaromVisibWave heightAir tempDewpointWater temp
2016-Aug-25 21:26N 29°51' E 032°32'1 1.0
2016-Aug-25 20:31N 29°50' E 032°32'0 0.0
2016-Aug-25 19:13N 29°50' E 032°32'0 0.0
2016-Aug-24 20:28N 29°50' E 032°32'0 0.0
2016-Aug-24 18:31N 29°50' E 032°32'0 0.0
2016-Aug-24 17:16N 29°50' E 032°32'  
2016-Aug-21 19:04N 29°42' E 032°36'0 0.0
2016-Aug-21 18:31N 29°42' E 032°36'5 0.4
2016-Aug-21 06:30N 29°37' E 032°36'2 2.2
2016-Aug-21 05:33N 29°39' E 032°37'4 3.6
2016-Aug-21 04:31N 29°43' E 032°36'0 0.0
2016-Aug-21 03:31N 29°43' E 032°36'0 0.0
2016-Aug-21 02:25N 29°43' E 032°36'  
Track history (hours):
 
Tides and Currents Weather Stations Pressure Air Temp Water Temp Dewpoint Dewpoint Depression Visibility Wind Speed Wind Dir Waves Ship Positions

Pacific Solarelle

Last reported at 2016-Aug-25 21:26 UTC. Time now 2016-Sep-26 10:30 UTC.
Position N 29°51' E 032°32'.
Warning: this ship's position is 31 days out of date.

Length 180 m; draft 10.3 m.

Type: Ship. MMSI: 538003925.

Date/timePositionNaut miles runAvg speedWind from/ knotsBaromVisibWave heightAir tempDewpointWater temp
2016-Aug-25 21:26N 29°51' E 032°32'1 1.0
2016-Aug-25 20:31N 29°50' E 032°32'0 0.0
2016-Aug-25 19:13N 29°50' E 032°32'0 0.0
2016-Aug-24 20:28N 29°50' E 032°32'0 0.0
2016-Aug-24 18:31N 29°50' E 032°32'0 0.0
2016-Aug-24 17:16N 29°50' E 032°32'  
2016-Aug-21 19:04N 29°42' E 032°36'0 0.0
2016-Aug-21 18:31N 29°42' E 032°36'5 0.4
2016-Aug-21 06:30N 29°37' E 032°36'2 2.2
2016-Aug-21 05:33N 29°39' E 032°37'4 3.6
2016-Aug-21 04:31N 29°43' E 032°36'0 0.0
2016-Aug-21 03:31N 29°43' E 032°36'0 0.0
2016-Aug-21 02:25N 29°43' E 032°36'  

Dump ship's entire track history